sensor_id;sensor_type;location;lat;lon;timestamp;P1;durP1;ratioP1;P2;durP2;ratioP2
8488;SDS011;4281;45.772;12.852;2023-01-29T00:01:54;25.73;;;19.43;;
8488;SDS011;4281;45.772;12.852;2023-01-29T00:04:22;25.00;;;18.20;;
8488;SDS011;4281;45.772;12.852;2023-01-29T00:06:49;25.07;;;19.10;;
8488;SDS011;4281;45.772;12.852;2023-01-29T00:09:19;24.17;;;17.67;;
8488;SDS011;4281;45.772;12.852;2023-01-29T00:11:46;23.53;;;17.67;;
8488;SDS011;4281;45.772;12.852;2023-01-29T00:14:14;23.80;;;17.70;;
8488;SDS011;4281;45.772;12.852;2023-01-29T00:16:42;24.47;;;18.10;;
8488;SDS011;4281;45.772;12.852;2023-01-29T00:19:09;22.67;;;16.67;;
8488;SDS011;4281;45.772;12.852;2023-01-29T00:21:37;25.00;;;19.23;;
8488;SDS011;4281;45.772;12.852;2023-01-29T00:26:43;24.10;;;17.73;;
8488;SDS011;4281;45.772;12.852;2023-01-29T00:29:11;23.77;;;17.90;;
8488;SDS011;4281;45.772;12.852;2023-01-29T00:31:39;24.60;;;18.33;;
8488;SDS011;4281;45.772;12.852;2023-01-29T00:34:07;23.93;;;18.37;;
8488;SDS011;4281;45.772;12.852;2023-01-29T00:36:34;27.73;;;20.53;;
8488;SDS011;4281;45.772;12.852;2023-01-29T00:39:02;26.53;;;19.07;;
8488;SDS011;4281;45.772;12.852;2023-01-29T00:41:36;24.37;;;19.13;;
8488;SDS011;4281;45.772;12.852;2023-01-29T00:44:23;27.00;;;19.60;;
8488;SDS011;4281;45.772;12.852;2023-01-29T00:47:10;24.60;;;18.37;;
8488;SDS011;4281;45.772;12.852;2023-01-29T00:49:52;22.17;;;16.20;;
8488;SDS011;4281;45.772;12.852;2023-01-29T00:52:19;23.23;;;17.83;;
8488;SDS011;4281;45.772;12.852;2023-01-29T00:54:50;24.13;;;17.80;;
8488;SDS011;4281;45.772;12.852;2023-01-29T00:57:18;25.63;;;19.30;;
8488;SDS011;4281;45.772;12.852;2023-01-29T00:59:47;24.53;;;18.70;;
8488;SDS011;4281;45.772;12.852;2023-01-29T01:02:15;23.50;;;18.20;;
8488;SDS011;4281;45.772;12.852;2023-01-29T01:05:00;22.50;;;17.27;;
8488;SDS011;4281;45.772;12.852;2023-01-29T01:07:28;22.37;;;17.33;;
8488;SDS011;4281;45.772;12.852;2023-01-29T01:09:56;24.43;;;17.37;;
8488;SDS011;4281;45.772;12.852;2023-01-29T01:12:42;25.63;;;18.57;;
8488;SDS011;4281;45.772;12.852;2023-01-29T01:15:11;25.00;;;18.07;;
8488;SDS011;4281;45.772;12.852;2023-01-29T01:17:39;25.30;;;18.97;;
8488;SDS011;4281;45.772;12.852;2023-01-29T01:20:07;24.53;;;18.33;;
8488;SDS011;4281;45.772;12.852;2023-01-29T01:22:37;24.40;;;18.70;;
8488;SDS011;4281;45.772;12.852;2023-01-29T01:25:05;23.60;;;18.13;;
8488;SDS011;4281;45.772;12.852;2023-01-29T01:27:33;27.53;;;19.07;;
8488;SDS011;4281;45.772;12.852;2023-01-29T01:30:03;26.50;;;18.77;;
8488;SDS011;4281;45.772;12.852;2023-01-29T01:32:32;25.67;;;17.97;;
8488;SDS011;4281;45.772;12.852;2023-01-29T01:35:00;24.00;;;18.10;;
8488;SDS011;4281;45.772;12.852;2023-01-29T01:37:28;25.07;;;17.00;;
8488;SDS011;4281;45.772;12.852;2023-01-29T01:39:55;25.30;;;17.43;;
8488;SDS011;4281;45.772;12.852;2023-01-29T01:42:26;23.50;;;17.20;;
8488;SDS011;4281;45.772;12.852;2023-01-29T01:44:56;22.57;;;16.27;;
8488;SDS011;4281;45.772;12.852;2023-01-29T01:47:28;22.93;;;16.67;;
8488;SDS011;4281;45.772;12.852;2023-01-29T01:50:00;23.57;;;17.30;;
8488;SDS011;4281;45.772;12.852;2023-01-29T01:52:33;21.53;;;16.20;;
8488;SDS011;4281;45.772;12.852;2023-01-29T01:55:03;20.83;;;15.73;;
8488;SDS011;4281;45.772;12.852;2023-01-29T01:57:31;21.33;;;16.33;;
8488;SDS011;4281;45.772;12.852;2023-01-29T02:00:01;20.97;;;15.90;;
8488;SDS011;4281;45.772;12.852;2023-01-29T02:02:36;23.07;;;16.97;;
8488;SDS011;4281;45.772;12.852;2023-01-29T02:05:23;21.00;;;16.23;;
8488;SDS011;4281;45.772;12.852;2023-01-29T02:08:08;20.93;;;15.73;;
8488;SDS011;4281;45.772;12.852;2023-01-29T02:10:54;21.67;;;16.30;;
8488;SDS011;4281;45.772;12.852;2023-01-29T02:13:22;22.17;;;16.83;;
8488;SDS011;4281;45.772;12.852;2023-01-29T02:15:50;23.03;;;16.23;;
8488;SDS011;4281;45.772;12.852;2023-01-29T02:18:18;20.00;;;15.20;;
8488;SDS011;4281;45.772;12.852;2023-01-29T02:20:59;22.93;;;17.47;;
8488;SDS011;4281;45.772;12.852;2023-01-29T02:23:50;22.20;;;16.00;;
8488;SDS011;4281;45.772;12.852;2023-01-29T02:26:31;21.30;;;16.03;;
8488;SDS011;4281;45.772;12.852;2023-01-29T02:29:09;20.57;;;15.87;;
8488;SDS011;4281;45.772;12.852;2023-01-29T02:31:57;22.87;;;17.17;;
8488;SDS011;4281;45.772;12.852;2023-01-29T02:34:35;23.97;;;17.80;;
8488;SDS011;4281;45.772;12.852;2023-01-29T02:37:24;21.83;;;16.43;;
8488;SDS011;4281;45.772;12.852;2023-01-29T02:39:59;20.87;;;15.27;;
8488;SDS011;4281;45.772;12.852;2023-01-29T02:42:34;21.50;;;15.97;;
8488;SDS011;4281;45.772;12.852;2023-01-29T02:45:08;22.50;;;16.43;;
8488;SDS011;4281;45.772;12.852;2023-01-29T02:47:39;23.27;;;16.77;;
8488;SDS011;4281;45.772;12.852;2023-01-29T02:50:12;23.53;;;17.03;;
8488;SDS011;4281;45.772;12.852;2023-01-29T02:52:43;23.30;;;17.17;;
8488;SDS011;4281;45.772;12.852;2023-01-29T02:55:17;25.03;;;17.83;;
8488;SDS011;4281;45.772;12.852;2023-01-29T02:57:48;24.33;;;18.13;;
8488;SDS011;4281;45.772;12.852;2023-01-29T03:00:20;25.37;;;17.50;;
8488;SDS011;4281;45.772;12.852;2023-01-29T03:02:52;24.53;;;17.63;;
8488;SDS011;4281;45.772;12.852;2023-01-29T03:05:22;21.87;;;17.13;;
8488;SDS011;4281;45.772;12.852;2023-01-29T03:07:54;26.17;;;18.20;;
8488;SDS011;4281;45.772;12.852;2023-01-29T03:10:25;21.47;;;15.57;;
8488;SDS011;4281;45.772;12.852;2023-01-29T03:12:59;21.00;;;15.73;;
8488;SDS011;4281;45.772;12.852;2023-01-29T03:15:31;20.57;;;15.10;;
8488;SDS011;4281;45.772;12.852;2023-01-29T03:18:04;21.73;;;15.93;;
8488;SDS011;4281;45.772;12.852;2023-01-29T03:20:36;20.67;;;15.10;;
8488;SDS011;4281;45.772;12.852;2023-01-29T03:23:13;22.00;;;16.20;;
8488;SDS011;4281;45.772;12.852;2023-01-29T03:25:43;21.20;;;15.37;;
8488;SDS011;4281;45.772;12.852;2023-01-29T03:28:28;21.07;;;15.23;;
8488;SDS011;4281;45.772;12.852;2023-01-29T03:31:15;20.53;;;15.30;;
8488;SDS011;4281;45.772;12.852;2023-01-29T03:34:02;20.43;;;14.67;;
8488;SDS011;4281;45.772;12.852;2023-01-29T03:36:34;21.00;;;15.27;;
8488;SDS011;4281;45.772;12.852;2023-01-29T03:39:05;21.80;;;15.70;;
8488;SDS011;4281;45.772;12.852;2023-01-29T03:41:34;20.67;;;15.10;;
8488;SDS011;4281;45.772;12.852;2023-01-29T03:44:07;21.37;;;15.83;;
8488;SDS011;4281;45.772;12.852;2023-01-29T03:46:42;22.00;;;16.30;;
8488;SDS011;4281;45.772;12.852;2023-01-29T03:49:18;22.80;;;16.20;;
8488;SDS011;4281;45.772;12.852;2023-01-29T03:51:50;19.67;;;15.57;;
8488;SDS011;4281;45.772;12.852;2023-01-29T03:54:22;22.80;;;16.33;;
8488;SDS011;4281;45.772;12.852;2023-01-29T03:56:54;20.77;;;15.87;;
8488;SDS011;4281;45.772;12.852;2023-01-29T03:59:27;22.13;;;16.73;;
8488;SDS011;4281;45.772;12.852;2023-01-29T04:02:01;24.13;;;17.23;;
8488;SDS011;4281;45.772;12.852;2023-01-29T04:04:31;23.77;;;17.87;;
8488;SDS011;4281;45.772;12.852;2023-01-29T04:07:03;24.77;;;17.00;;
8488;SDS011;4281;45.772;12.852;2023-01-29T04:09:33;21.67;;;16.47;;
8488;SDS011;4281;45.772;12.852;2023-01-29T04:12:04;21.80;;;16.47;;
8488;SDS011;4281;45.772;12.852;2023-01-29T04:14:34;22.17;;;16.37;;
8488;SDS011;4281;45.772;12.852;2023-01-29T04:17:06;21.60;;;16.70;;
8488;SDS011;4281;45.772;12.852;2023-01-29T04:19:35;24.93;;;17.27;;
8488;SDS011;4281;45.772;12.852;2023-01-29T04:22:04;23.27;;;16.70;;
8488;SDS011;4281;45.772;12.852;2023-01-29T04:24:32;23.93;;;16.70;;
8488;SDS011;4281;45.772;12.852;2023-01-29T04:27:06;23.87;;;17.57;;
8488;SDS011;4281;45.772;12.852;2023-01-29T04:29:44;26.33;;;19.30;;
8488;SDS011;4281;45.772;12.852;2023-01-29T04:32:20;24.23;;;17.67;;
8488;SDS011;4281;45.772;12.852;2023-01-29T04:34:57;26.20;;;18.43;;
8488;SDS011;4281;45.772;12.852;2023-01-29T04:37:33;26.43;;;19.03;;
8488;SDS011;4281;45.772;12.852;2023-01-29T04:40:08;23.87;;;17.83;;
8488;SDS011;4281;45.772;12.852;2023-01-29T04:42:43;22.60;;;16.67;;
8488;SDS011;4281;45.772;12.852;2023-01-29T04:45:17;22.40;;;17.10;;
8488;SDS011;4281;45.772;12.852;2023-01-29T04:47:48;21.13;;;16.13;;
8488;SDS011;4281;45.772;12.852;2023-01-29T04:50:24;23.47;;;17.10;;
8488;SDS011;4281;45.772;12.852;2023-01-29T04:52:56;21.37;;;16.07;;
8488;SDS011;4281;45.772;12.852;2023-01-29T04:55:28;22.37;;;16.83;;
8488;SDS011;4281;45.772;12.852;2023-01-29T04:58:02;23.93;;;18.30;;
8488;SDS011;4281;45.772;12.852;2023-01-29T05:00:33;24.47;;;17.73;;
8488;SDS011;4281;45.772;12.852;2023-01-29T05:03:03;23.80;;;18.67;;
8488;SDS011;4281;45.772;12.852;2023-01-29T05:05:35;24.20;;;17.67;;
8488;SDS011;4281;45.772;12.852;2023-01-29T05:08:02;23.50;;;16.33;;
8488;SDS011;4281;45.772;12.852;2023-01-29T05:10:31;21.40;;;16.20;;
8488;SDS011;4281;45.772;12.852;2023-01-29T05:13:00;20.67;;;15.97;;
8488;SDS011;4281;45.772;12.852;2023-01-29T05:15:32;20.90;;;15.57;;
8488;SDS011;4281;45.772;12.852;2023-01-29T05:18:03;19.70;;;14.83;;
8488;SDS011;4281;45.772;12.852;2023-01-29T05:20:34;20.27;;;15.53;;
8488;SDS011;4281;45.772;12.852;2023-01-29T05:23:03;20.43;;;15.30;;
8488;SDS011;4281;45.772;12.852;2023-01-29T05:25:32;20.07;;;15.27;;
8488;SDS011;4281;45.772;12.852;2023-01-29T05:28:00;23.17;;;16.10;;
8488;SDS011;4281;45.772;12.852;2023-01-29T05:30:33;22.33;;;16.47;;
8488;SDS011;4281;45.772;12.852;2023-01-29T05:33:02;23.07;;;16.73;;
8488;SDS011;4281;45.772;12.852;2023-01-29T05:35:31;21.43;;;16.47;;
8488;SDS011;4281;45.772;12.852;2023-01-29T05:38:00;20.73;;;15.77;;
8488;SDS011;4281;45.772;12.852;2023-01-29T05:40:27;22.57;;;16.03;;
8488;SDS011;4281;45.772;12.852;2023-01-29T05:42:55;20.73;;;15.13;;
8488;SDS011;4281;45.772;12.852;2023-01-29T05:45:23;20.87;;;16.03;;
8488;SDS011;4281;45.772;12.852;2023-01-29T05:47:54;23.93;;;17.30;;
8488;SDS011;4281;45.772;12.852;2023-01-29T05:50:24;23.10;;;17.53;;
8488;SDS011;4281;45.772;12.852;2023-01-29T05:52:56;23.67;;;18.23;;
8488;SDS011;4281;45.772;12.852;2023-01-29T05:55:24;22.87;;;16.47;;
8488;SDS011;4281;45.772;12.852;2023-01-29T05:57:52;20.43;;;15.10;;
8488;SDS011;4281;45.772;12.852;2023-01-29T06:00:20;23.73;;;17.20;;
8488;SDS011;4281;45.772;12.852;2023-01-29T06:02:48;23.80;;;17.20;;
8488;SDS011;4281;45.772;12.852;2023-01-29T06:05:16;22.77;;;16.40;;
8488;SDS011;4281;45.772;12.852;2023-01-29T06:07:45;21.20;;;16.00;;
8488;SDS011;4281;45.772;12.852;2023-01-29T06:10:13;21.30;;;15.80;;
8488;SDS011;4281;45.772;12.852;2023-01-29T06:12:43;20.13;;;16.07;;
8488;SDS011;4281;45.772;12.852;2023-01-29T06:15:11;20.50;;;15.23;;
8488;SDS011;4281;45.772;12.852;2023-01-29T06:17:40;24.73;;;16.60;;
8488;SDS011;4281;45.772;12.852;2023-01-29T06:20:09;21.90;;;15.77;;
8488;SDS011;4281;45.772;12.852;2023-01-29T06:22:37;20.10;;;15.13;;
8488;SDS011;4281;45.772;12.852;2023-01-29T06:25:07;21.47;;;16.00;;
8488;SDS011;4281;45.772;12.852;2023-01-29T06:27:35;21.57;;;15.83;;
8488;SDS011;4281;45.772;12.852;2023-01-29T06:30:03;20.53;;;15.10;;
8488;SDS011;4281;45.772;12.852;2023-01-29T06:32:31;20.33;;;14.80;;
8488;SDS011;4281;45.772;12.852;2023-01-29T06:34:59;21.20;;;15.67;;
8488;SDS011;4281;45.772;12.852;2023-01-29T06:37:27;20.03;;;14.57;;
8488;SDS011;4281;45.772;12.852;2023-01-29T06:39:54;21.00;;;15.50;;
8488;SDS011;4281;45.772;12.852;2023-01-29T06:42:23;20.53;;;15.03;;
8488;SDS011;4281;45.772;12.852;2023-01-29T06:44:53;21.23;;;15.87;;
8488;SDS011;4281;45.772;12.852;2023-01-29T06:47:21;22.70;;;15.30;;
8488;SDS011;4281;45.772;12.852;2023-01-29T06:49:48;19.00;;;15.07;;
8488;SDS011;4281;45.772;12.852;2023-01-29T06:52:16;21.60;;;15.43;;
8488;SDS011;4281;45.772;12.852;2023-01-29T06:54:44;20.90;;;16.50;;
8488;SDS011;4281;45.772;12.852;2023-01-29T06:57:12;23.43;;;17.03;;
8488;SDS011;4281;45.772;12.852;2023-01-29T06:59:41;23.80;;;16.63;;
8488;SDS011;4281;45.772;12.852;2023-01-29T07:02:09;21.37;;;16.90;;
8488;SDS011;4281;45.772;12.852;2023-01-29T07:04:37;22.90;;;16.57;;
8488;SDS011;4281;45.772;12.852;2023-01-29T07:07:07;24.23;;;17.30;;
8488;SDS011;4281;45.772;12.852;2023-01-29T07:09:38;22.93;;;16.53;;
8488;SDS011;4281;45.772;12.852;2023-01-29T07:12:06;20.70;;;15.43;;
8488;SDS011;4281;45.772;12.852;2023-01-29T07:14:34;21.20;;;15.90;;
8488;SDS011;4281;45.772;12.852;2023-01-29T07:17:03;21.40;;;15.73;;
8488;SDS011;4281;45.772;12.852;2023-01-29T07:19:31;19.20;;;14.23;;
8488;SDS011;4281;45.772;12.852;2023-01-29T07:21:59;18.97;;;14.93;;
8488;SDS011;4281;45.772;12.852;2023-01-29T07:24:27;20.93;;;16.07;;
8488;SDS011;4281;45.772;12.852;2023-01-29T07:26:55;21.03;;;15.73;;
8488;SDS011;4281;45.772;12.852;2023-01-29T07:29:24;20.90;;;15.43;;
8488;SDS011;4281;45.772;12.852;2023-01-29T07:31:52;20.67;;;15.53;;
8488;SDS011;4281;45.772;12.852;2023-01-29T07:34:21;18.67;;;14.70;;
8488;SDS011;4281;45.772;12.852;2023-01-29T07:36:51;22.20;;;15.77;;
8488;SDS011;4281;45.772;12.852;2023-01-29T07:39:19;20.43;;;15.70;;
8488;SDS011;4281;45.772;12.852;2023-01-29T07:41:47;20.53;;;15.10;;
8488;SDS011;4281;45.772;12.852;2023-01-29T07:44:15;20.50;;;15.77;;
8488;SDS011;4281;45.772;12.852;2023-01-29T07:46:42;20.43;;;15.23;;
8488;SDS011;4281;45.772;12.852;2023-01-29T07:49:10;21.53;;;16.13;;
8488;SDS011;4281;45.772;12.852;2023-01-29T07:51:39;19.63;;;15.47;;
8488;SDS011;4281;45.772;12.852;2023-01-29T07:54:07;20.67;;;15.40;;
8488;SDS011;4281;45.772;12.852;2023-01-29T07:56:35;20.73;;;14.83;;
8488;SDS011;4281;45.772;12.852;2023-01-29T07:59:02;17.67;;;14.47;;
8488;SDS011;4281;45.772;12.852;2023-01-29T08:01:30;22.03;;;16.43;;
8488;SDS011;4281;45.772;12.852;2023-01-29T08:03:58;21.93;;;15.60;;
8488;SDS011;4281;45.772;12.852;2023-01-29T08:06:25;20.00;;;15.23;;
8488;SDS011;4281;45.772;12.852;2023-01-29T08:08:54;18.33;;;13.87;;
8488;SDS011;4281;45.772;12.852;2023-01-29T08:11:22;19.40;;;14.40;;
8488;SDS011;4281;45.772;12.852;2023-01-29T08:13:50;18.77;;;14.57;;
8488;SDS011;4281;45.772;12.852;2023-01-29T08:16:18;20.37;;;15.33;;
8488;SDS011;4281;45.772;12.852;2023-01-29T08:18:45;20.00;;;15.13;;
8488;SDS011;4281;45.772;12.852;2023-01-29T08:21:14;20.83;;;14.60;;
8488;SDS011;4281;45.772;12.852;2023-01-29T08:23:42;19.23;;;14.60;;
8488;SDS011;4281;45.772;12.852;2023-01-29T08:26:11;18.93;;;14.27;;
8488;SDS011;4281;45.772;12.852;2023-01-29T08:28:38;19.47;;;14.50;;
8488;SDS011;4281;45.772;12.852;2023-01-29T08:31:11;19.80;;;15.10;;
8488;SDS011;4281;45.772;12.852;2023-01-29T08:33:40;20.73;;;15.03;;
8488;SDS011;4281;45.772;12.852;2023-01-29T08:36:08;19.17;;;14.10;;
8488;SDS011;4281;45.772;12.852;2023-01-29T08:38:36;18.10;;;14.23;;
8488;SDS011;4281;45.772;12.852;2023-01-29T08:41:04;18.53;;;14.87;;
8488;SDS011;4281;45.772;12.852;2023-01-29T08:43:33;17.33;;;13.97;;
8488;SDS011;4281;45.772;12.852;2023-01-29T08:46:02;19.53;;;14.43;;
8488;SDS011;4281;45.772;12.852;2023-01-29T08:48:30;19.30;;;14.43;;
8488;SDS011;4281;45.772;12.852;2023-01-29T08:50:58;20.23;;;14.57;;
8488;SDS011;4281;45.772;12.852;2023-01-29T08:53:27;19.07;;;14.60;;
8488;SDS011;4281;45.772;12.852;2023-01-29T08:55:55;18.90;;;14.33;;
8488;SDS011;4281;45.772;12.852;2023-01-29T08:58:23;18.57;;;13.90;;
8488;SDS011;4281;45.772;12.852;2023-01-29T09:00:52;18.57;;;14.13;;
8488;SDS011;4281;45.772;12.852;2023-01-29T09:03:19;17.60;;;13.47;;
8488;SDS011;4281;45.772;12.852;2023-01-29T09:05:47;17.73;;;13.37;;
8488;SDS011;4281;45.772;12.852;2023-01-29T09:08:15;17.03;;;13.07;;
8488;SDS011;4281;45.772;12.852;2023-01-29T09:10:43;19.00;;;13.73;;
8488;SDS011;4281;45.772;12.852;2023-01-29T09:13:10;18.40;;;13.67;;
8488;SDS011;4281;45.772;12.852;2023-01-29T09:15:38;18.17;;;13.27;;
8488;SDS011;4281;45.772;12.852;2023-01-29T09:18:07;16.60;;;13.20;;
8488;SDS011;4281;45.772;12.852;2023-01-29T09:20:35;16.77;;;13.13;;
8488;SDS011;4281;45.772;12.852;2023-01-29T09:23:04;16.70;;;13.40;;
8488;SDS011;4281;45.772;12.852;2023-01-29T09:25:32;15.60;;;11.60;;
8488;SDS011;4281;45.772;12.852;2023-01-29T09:28:00;14.70;;;11.80;;
8488;SDS011;4281;45.772;12.852;2023-01-29T09:30:28;14.23;;;11.43;;
8488;SDS011;4281;45.772;12.852;2023-01-29T09:32:58;14.57;;;11.23;;
8488;SDS011;4281;45.772;12.852;2023-01-29T09:35:27;12.57;;;10.17;;
8488;SDS011;4281;45.772;12.852;2023-01-29T09:37:55;12.97;;;10.63;;
8488;SDS011;4281;45.772;12.852;2023-01-29T09:40:23;13.83;;;10.97;;
8488;SDS011;4281;45.772;12.852;2023-01-29T09:42:54;12.73;;;10.57;;
8488;SDS011;4281;45.772;12.852;2023-01-29T09:45:25;11.90;;;9.80;;
8488;SDS011;4281;45.772;12.852;2023-01-29T09:47:54;11.53;;;9.40;;
8488;SDS011;4281;45.772;12.852;2023-01-29T09:50:25;13.17;;;10.30;;
8488;SDS011;4281;45.772;12.852;2023-01-29T09:52:58;12.60;;;10.17;;
8488;SDS011;4281;45.772;12.852;2023-01-29T09:55:30;12.33;;;9.60;;
8488;SDS011;4281;45.772;12.852;2023-01-29T09:58:02;11.80;;;9.20;;
8488;SDS011;4281;45.772;12.852;2023-01-29T10:00:33;13.03;;;10.00;;
8488;SDS011;4281;45.772;12.852;2023-01-29T10:03:07;10.50;;;8.93;;
8488;SDS011;4281;45.772;12.852;2023-01-29T10:05:46;11.10;;;8.90;;
8488;SDS011;4281;45.772;12.852;2023-01-29T10:08:29;9.27;;;8.33;;
8488;SDS011;4281;45.772;12.852;2023-01-29T10:11:04;11.50;;;8.97;;
8488;SDS011;4281;45.772;12.852;2023-01-29T10:13:39;10.57;;;8.97;;
8488;SDS011;4281;45.772;12.852;2023-01-29T10:16:15;11.20;;;9.50;;
8488;SDS011;4281;45.772;12.852;2023-01-29T10:18:56;10.50;;;8.70;;
8488;SDS011;4281;45.772;12.852;2023-01-29T10:21:34;10.43;;;8.90;;
8488;SDS011;4281;45.772;12.852;2023-01-29T10:24:13;10.47;;;8.33;;
8488;SDS011;4281;45.772;12.852;2023-01-29T10:26:46;9.97;;;8.73;;
8488;SDS011;4281;45.772;12.852;2023-01-29T10:29:15;9.70;;;8.37;;
8488;SDS011;4281;45.772;12.852;2023-01-29T10:31:45;10.27;;;8.37;;
8488;SDS011;4281;45.772;12.852;2023-01-29T10:34:16;10.37;;;8.63;;
8488;SDS011;4281;45.772;12.852;2023-01-29T10:36:49;9.20;;;8.00;;
8488;SDS011;4281;45.772;12.852;2023-01-29T10:39:17;10.73;;;9.20;;
8488;SDS011;4281;45.772;12.852;2023-01-29T10:41:57;9.20;;;7.90;;
8488;SDS011;4281;45.772;12.852;2023-01-29T10:44:34;10.10;;;7.93;;
8488;SDS011;4281;45.772;12.852;2023-01-29T10:47:19;10.90;;;9.20;;
8488;SDS011;4281;45.772;12.852;2023-01-29T10:50:02;10.43;;;8.97;;
8488;SDS011;4281;45.772;12.852;2023-01-29T10:52:40;9.70;;;8.27;;
8488;SDS011;4281;45.772;12.852;2023-01-29T10:55:19;9.17;;;7.73;;
8488;SDS011;4281;45.772;12.852;2023-01-29T10:57:57;9.03;;;7.47;;
8488;SDS011;4281;45.772;12.852;2023-01-29T11:00:29;9.87;;;8.20;;
8488;SDS011;4281;45.772;12.852;2023-01-29T11:03:07;9.23;;;8.17;;
8488;SDS011;4281;45.772;12.852;2023-01-29T11:05:54;9.03;;;7.50;;
8488;SDS011;4281;45.772;12.852;2023-01-29T11:08:26;9.37;;;8.33;;
8488;SDS011;4281;45.772;12.852;2023-01-29T11:10:58;9.40;;;7.50;;
8488;SDS011;4281;45.772;12.852;2023-01-29T11:13:30;11.03;;;9.03;;
8488;SDS011;4281;45.772;12.852;2023-01-29T11:15:59;9.67;;;8.30;;
8488;SDS011;4281;45.772;12.852;2023-01-29T11:18:26;9.63;;;8.63;;
8488;SDS011;4281;45.772;12.852;2023-01-29T11:21:14;11.27;;;9.37;;
8488;SDS011;4281;45.772;12.852;2023-01-29T11:23:44;11.73;;;10.13;;
8488;SDS011;4281;45.772;12.852;2023-01-29T11:26:12;11.33;;;9.47;;
8488;SDS011;4281;45.772;12.852;2023-01-29T11:28:43;10.03;;;8.73;;
8488;SDS011;4281;45.772;12.852;2023-01-29T11:31:19;10.33;;;8.40;;
8488;SDS011;4281;45.772;12.852;2023-01-29T11:33:49;9.23;;;8.00;;
8488;SDS011;4281;45.772;12.852;2023-01-29T11:36:19;10.13;;;9.03;;
8488;SDS011;4281;45.772;12.852;2023-01-29T11:38:59;9.60;;;7.83;;
8488;SDS011;4281;45.772;12.852;2023-01-29T11:41:41;9.73;;;8.67;;
8488;SDS011;4281;45.772;12.852;2023-01-29T11:47:09;10.73;;;9.10;;
8488;SDS011;4281;45.772;12.852;2023-01-29T11:49:39;9.57;;;8.33;;
8488;SDS011;4281;45.772;12.852;2023-01-29T11:52:08;10.90;;;9.40;;
8488;SDS011;4281;45.772;12.852;2023-01-29T11:54:38;10.10;;;8.30;;
8488;SDS011;4281;45.772;12.852;2023-01-29T11:57:19;10.93;;;8.97;;
8488;SDS011;4281;45.772;12.852;2023-01-29T11:59:50;10.20;;;8.30;;
8488;SDS011;4281;45.772;12.852;2023-01-29T12:02:24;10.00;;;8.50;;
8488;SDS011;4281;45.772;12.852;2023-01-29T12:04:56;10.37;;;8.93;;
8488;SDS011;4281;45.772;12.852;2023-01-29T12:07:25;11.73;;;9.50;;
8488;SDS011;4281;45.772;12.852;2023-01-29T12:09:55;10.20;;;8.53;;
8488;SDS011;4281;45.772;12.852;2023-01-29T12:12:30;11.20;;;9.47;;
8488;SDS011;4281;45.772;12.852;2023-01-29T12:15:05;11.00;;;9.23;;
8488;SDS011;4281;45.772;12.852;2023-01-29T12:17:42;12.30;;;9.97;;
8488;SDS011;4281;45.772;12.852;2023-01-29T12:20:14;10.80;;;9.20;;
8488;SDS011;4281;45.772;12.852;2023-01-29T12:22:44;10.90;;;9.20;;
8488;SDS011;4281;45.772;12.852;2023-01-29T12:25:21;10.80;;;9.20;;
8488;SDS011;4281;45.772;12.852;2023-01-29T12:27:52;10.80;;;9.30;;
8488;SDS011;4281;45.772;12.852;2023-01-29T12:30:24;12.27;;;10.40;;
8488;SDS011;4281;45.772;12.852;2023-01-29T12:32:55;11.50;;;9.73;;
8488;SDS011;4281;45.772;12.852;2023-01-29T12:35:28;10.90;;;9.47;;
8488;SDS011;4281;45.772;12.852;2023-01-29T12:37:57;12.53;;;10.40;;
8488;SDS011;4281;45.772;12.852;2023-01-29T12:40:30;11.70;;;9.70;;
8488;SDS011;4281;45.772;12.852;2023-01-29T12:43:02;10.47;;;9.10;;
8488;SDS011;4281;45.772;12.852;2023-01-29T12:45:31;11.93;;;9.37;;
8488;SDS011;4281;45.772;12.852;2023-01-29T12:48:01;12.73;;;10.20;;
8488;SDS011;4281;45.772;12.852;2023-01-29T12:50:34;12.20;;;9.87;;
8488;SDS011;4281;45.772;12.852;2023-01-29T12:53:04;11.37;;;9.67;;
8488;SDS011;4281;45.772;12.852;2023-01-29T12:55:35;10.37;;;9.27;;
8488;SDS011;4281;45.772;12.852;2023-01-29T12:58:08;11.47;;;9.60;;
8488;SDS011;4281;45.772;12.852;2023-01-29T13:00:39;12.27;;;10.00;;
8488;SDS011;4281;45.772;12.852;2023-01-29T13:03:13;11.83;;;9.70;;
8488;SDS011;4281;45.772;12.852;2023-01-29T13:05:46;10.80;;;9.47;;
8488;SDS011;4281;45.772;12.852;2023-01-29T13:08:17;12.47;;;9.83;;
8488;SDS011;4281;45.772;12.852;2023-01-29T13:10:49;11.73;;;9.63;;
8488;SDS011;4281;45.772;12.852;2023-01-29T13:13:21;11.90;;;9.73;;
8488;SDS011;4281;45.772;12.852;2023-01-29T13:15:51;11.53;;;9.33;;
8488;SDS011;4281;45.772;12.852;2023-01-29T13:21:10;12.47;;;9.63;;
8488;SDS011;4281;45.772;12.852;2023-01-29T13:23:41;11.20;;;9.07;;
8488;SDS011;4281;45.772;12.852;2023-01-29T13:26:13;11.13;;;9.43;;
8488;SDS011;4281;45.772;12.852;2023-01-29T13:28:44;11.43;;;9.37;;
8488;SDS011;4281;45.772;12.852;2023-01-29T13:31:13;11.67;;;9.87;;
8488;SDS011;4281;45.772;12.852;2023-01-29T13:33:51;11.07;;;9.20;;
8488;SDS011;4281;45.772;12.852;2023-01-29T13:36:22;10.93;;;9.10;;
8488;SDS011;4281;45.772;12.852;2023-01-29T13:38:53;11.47;;;9.50;;
8488;SDS011;4281;45.772;12.852;2023-01-29T13:41:31;11.47;;;9.17;;
8488;SDS011;4281;45.772;12.852;2023-01-29T13:44:00;11.20;;;9.33;;
8488;SDS011;4281;45.772;12.852;2023-01-29T13:46:27;11.40;;;9.43;;
8488;SDS011;4281;45.772;12.852;2023-01-29T13:48:55;12.77;;;10.47;;
8488;SDS011;4281;45.772;12.852;2023-01-29T13:51:28;11.47;;;9.53;;
8488;SDS011;4281;45.772;12.852;2023-01-29T13:54:01;13.47;;;10.97;;
8488;SDS011;4281;45.772;12.852;2023-01-29T13:56:55;11.93;;;9.60;;
8488;SDS011;4281;45.772;12.852;2023-01-29T14:02:21;12.33;;;9.97;;
8488;SDS011;4281;45.772;12.852;2023-01-29T14:04:50;11.30;;;9.77;;
8488;SDS011;4281;45.772;12.852;2023-01-29T14:07:37;11.07;;;8.83;;
8488;SDS011;4281;45.772;12.852;2023-01-29T14:10:15;10.93;;;9.73;;
8488;SDS011;4281;45.772;12.852;2023-01-29T14:12:47;12.50;;;10.10;;
8488;SDS011;4281;45.772;12.852;2023-01-29T14:15:20;12.77;;;10.37;;
8488;SDS011;4281;45.772;12.852;2023-01-29T14:17:57;13.10;;;10.07;;
8488;SDS011;4281;45.772;12.852;2023-01-29T14:20:40;10.80;;;9.27;;
8488;SDS011;4281;45.772;12.852;2023-01-29T14:23:20;13.20;;;10.43;;
8488;SDS011;4281;45.772;12.852;2023-01-29T14:25:53;10.90;;;9.43;;
8488;SDS011;4281;45.772;12.852;2023-01-29T14:28:23;12.83;;;10.07;;
8488;SDS011;4281;45.772;12.852;2023-01-29T14:30:53;11.53;;;9.73;;
8488;SDS011;4281;45.772;12.852;2023-01-29T14:33:32;12.83;;;10.33;;
8488;SDS011;4281;45.772;12.852;2023-01-29T14:36:05;11.40;;;9.40;;
8488;SDS011;4281;45.772;12.852;2023-01-29T14:38:35;12.10;;;9.60;;
8488;SDS011;4281;45.772;12.852;2023-01-29T14:41:04;13.93;;;10.93;;
8488;SDS011;4281;45.772;12.852;2023-01-29T14:43:36;12.93;;;10.30;;
8488;SDS011;4281;45.772;12.852;2023-01-29T14:49:07;11.03;;;9.60;;
8488;SDS011;4281;45.772;12.852;2023-01-29T14:51:36;12.63;;;9.73;;
8488;SDS011;4281;45.772;12.852;2023-01-29T14:54:12;11.30;;;9.73;;
8488;SDS011;4281;45.772;12.852;2023-01-29T14:56:44;11.87;;;9.83;;
8488;SDS011;4281;45.772;12.852;2023-01-29T14:59:18;12.37;;;9.73;;
8488;SDS011;4281;45.772;12.852;2023-01-29T15:01:50;11.67;;;9.77;;
8488;SDS011;4281;45.772;12.852;2023-01-29T15:04:20;12.20;;;10.40;;
8488;SDS011;4281;45.772;12.852;2023-01-29T15:06:50;13.47;;;10.37;;
8488;SDS011;4281;45.772;12.852;2023-01-29T15:09:25;12.50;;;10.57;;
8488;SDS011;4281;45.772;12.852;2023-01-29T15:12:02;12.30;;;10.43;;
8488;SDS011;4281;45.772;12.852;2023-01-29T15:14:36;12.67;;;10.30;;
8488;SDS011;4281;45.772;12.852;2023-01-29T15:19:56;11.97;;;9.53;;
8488;SDS011;4281;45.772;12.852;2023-01-29T15:22:23;14.10;;;10.93;;